Time;durP1;ratioP1;P1;durP2;ratioP2;P2;SDS_P1;SDS_P2;PMS_P1;PMS_P2;Temp;Humidity;BMP_temperature;BMP_pressure;BME280_temperature;BME280_humidity;BME280_pressure;Samples;Min_cycle;Max_cycle;Signal;HPM_P1;HPM_P2
2023/08/23 00:02:15;;;;;;;14.00;7.70;;;21.00;99.90;;;;;;4967617;28;20205;-84
2023/08/23 00:04:40;;;;;;;9.77;7.20;;;21.00;99.90;;;;;;4975170;28;20194;-82
2023/08/23 00:07:06;;;;;;;12.40;8.20;;;20.90;99.90;;;;;;4972679;28;20203;-81
2023/08/23 00:09:31;;;;;;;13.83;7.67;;;20.90;99.90;;;;;;4970640;28;20342;-83
2023/08/23 00:11:57;;;;;;;18.63;7.77;;;21.00;99.90;;;;;;4969829;28;20176;-82
2023/08/23 00:14:23;;;;;;;17.20;7.10;;;20.80;99.90;;;;;;4973797;28;20186;-81
2023/08/23 00:16:48;;;;;;;9.70;7.07;;;20.70;99.90;;;;;;4985509;28;20184;-83
2023/08/23 00:19:13;;;;;;;8.63;7.83;;;20.70;99.90;;;;;;4975148;28;20262;-84
2023/08/23 00:21:39;;;;;;;11.77;7.97;;;20.60;99.90;;;;;;4973154;28;20191;-81
2023/08/23 00:24:05;;;;;;;10.20;8.20;;;20.50;99.90;;;;;;4977651;28;20246;-83
2023/08/23 00:26:30;;;;;;;9.63;7.87;;;20.50;99.90;;;;;;4966141;28;20198;-84
2023/08/23 00:28:56;;;;;;;10.30;8.40;;;20.40;99.90;;;;;;4969628;28;20609;-81
2023/08/23 00:31:22;;;;;;;13.83;9.40;;;20.40;99.90;;;;;;4973081;28;20225;-81
2023/08/23 00:33:47;;;;;;;7.83;6.40;;;20.50;99.90;;;;;;4976639;28;20832;-83
2023/08/23 00:36:13;;;;;;;10.90;8.37;;;20.50;99.90;;;;;;4974008;28;20182;-79
2023/08/23 00:38:38;;;;;;;9.43;8.00;;;20.50;99.90;;;;;;4968950;28;20214;-81
2023/08/23 00:41:04;;;;;;;8.07;7.23;;;20.50;99.90;;;;;;4967774;28;20234;-80
2023/08/23 00:43:29;;;;;;;12.00;7.57;;;20.40;99.90;;;;;;4970322;28;20192;-80
2023/08/23 00:45:55;;;;;;;11.83;7.97;;;20.40;99.90;;;;;;4970155;28;20218;-79
2023/08/23 00:48:20;;;;;;;11.80;8.20;;;20.30;99.90;;;;;;4971581;28;20230;-80
2023/08/23 00:50:46;;;;;;;7.77;6.83;;;20.30;99.90;;;;;;4978318;28;20199;-79
2023/08/23 00:53:15;;;;;;;13.73;7.97;;;20.20;99.90;;;;;;4985521;28;20270;-77
2023/08/23 00:55:41;;;;;;;17.10;8.30;;;20.10;99.90;;;;;;4971505;28;20218;-80
2023/08/23 00:58:07;;;;;;;9.57;7.93;;;20.20;99.90;;;;;;4973043;28;20443;-78
2023/08/23 01:00:33;;;;;;;10.53;8.20;;;20.10;99.90;;;;;;4974760;28;20497;-79
2023/08/23 01:02:59;;;;;;;10.30;8.67;;;20.10;99.90;;;;;;4973961;28;20438;-81
2023/08/23 01:05:45;;;;;;;10.00;7.63;;;20.10;99.90;;;;;;4967964;28;20935;-82
2023/08/23 01:08:19;;;;;;;13.33;8.90;;;20.10;99.90;;;;;;4970471;28;20538;-80
2023/08/23 01:11:09;;;;;;;9.50;8.03;;;20.20;99.90;;;;;;4974160;28;20444;-80
2023/08/23 01:14:04;;;;;;;15.33;8.47;;;20.20;99.90;;;;;;4971471;28;20435;-79
2023/08/23 01:16:32;;;;;;;9.33;8.37;;;20.10;99.90;;;;;;4975403;28;20641;-85
2023/08/23 01:19:00;;;;;;;10.10;8.97;;;19.90;99.90;;;;;;4969402;28;20461;-84
2023/08/23 01:21:32;;;;;;;11.40;8.53;;;19.90;99.90;;;;;;4970141;28;20541;-79
2023/08/23 01:23:58;;;;;;;12.47;8.30;;;19.90;99.90;;;;;;4971725;28;21177;-80
2023/08/23 01:26:24;;;;;;;8.37;7.57;;;19.90;99.90;;;;;;4970498;28;20482;-81
2023/08/23 01:28:51;;;;;;;9.73;8.00;;;19.80;99.90;;;;;;4972591;28;20474;-81
2023/08/23 01:31:21;;;;;;;11.80;7.93;;;19.80;99.90;;;;;;4969257;28;20270;-77
2023/08/23 01:33:54;;;;;;;8.87;7.57;;;19.80;99.90;;;;;;4975005;28;20470;-80
2023/08/23 01:36:25;;;;;;;10.20;8.43;;;19.80;99.90;;;;;;4982539;28;20439;-78
2023/08/23 01:38:52;;;;;;;10.90;7.77;;;19.70;99.90;;;;;;4977117;28;20649;-82
2023/08/23 01:41:24;;;;;;;17.53;8.03;;;19.70;99.90;;;;;;4969496;28;20439;-79
2023/08/23 01:43:52;;;;;;;14.93;8.60;;;19.70;99.90;;;;;;4975204;28;20492;-80
2023/08/23 01:46:17;;;;;;;9.27;8.13;;;19.70;99.90;;;;;;4973804;28;20968;-82
2023/08/23 01:48:43;;;;;;;12.03;8.57;;;19.60;99.90;;;;;;4972030;28;20495;-83
2023/08/23 01:51:08;;;;;;;9.73;7.77;;;19.60;99.90;;;;;;4971853;28;20215;-82
2023/08/23 01:53:34;;;;;;;8.00;7.10;;;19.50;99.90;;;;;;4969753;28;20230;-80
2023/08/23 01:56:00;;;;;;;10.23;9.03;;;19.50;99.90;;;;;;4973172;28;20210;-84
2023/08/23 01:58:26;;;;;;;14.00;8.87;;;19.40;99.90;;;;;;4962953;28;20211;-81
2023/08/23 02:00:52;;;;;;;10.50;8.27;;;19.40;99.90;;;;;;4969338;28;20435;-84
2023/08/23 02:03:18;;;;;;;10.80;7.33;;;19.40;99.90;;;;;;4968221;28;20194;-79
2023/08/23 02:05:44;;;;;;;9.50;8.50;;;19.30;99.90;;;;;;4967166;28;20442;-83
2023/08/23 02:08:09;;;;;;;11.30;8.90;;;19.30;99.90;;;;;;4973482;28;21001;-84
2023/08/23 02:10:35;;;;;;;10.00;8.20;;;19.30;99.90;;;;;;4970303;28;20816;-79
2023/08/23 02:13:04;;;;;;;12.00;8.13;;;19.30;99.90;;;;;;4969971;28;20175;-83
2023/08/23 02:15:30;;;;;;;12.53;8.33;;;19.30;99.90;;;;;;4972548;28;20177;-78
2023/08/23 02:17:55;;;;;;;10.10;8.03;;;19.20;99.90;;;;;;4978217;28;20764;-80
2023/08/23 02:20:21;;;;;;;8.60;7.60;;;19.20;99.90;;;;;;4970817;28;20221;-80
2023/08/23 02:22:46;;;;;;;10.47;8.10;;;19.20;99.90;;;;;;4967122;28;20200;-83
2023/08/23 02:25:12;;;;;;;8.17;7.30;;;19.30;99.90;;;;;;4977738;28;20191;-80
2023/08/23 02:27:37;;;;;;;9.83;8.10;;;19.20;99.90;;;;;;4978047;28;20203;-83
2023/08/23 02:30:03;;;;;;;10.40;8.00;;;19.20;99.90;;;;;;4974201;28;20198;-83
2023/08/23 02:32:29;;;;;;;12.50;8.20;;;19.20;99.90;;;;;;4971340;28;20195;-85
2023/08/23 02:34:54;;;;;;;11.10;8.37;;;20.80;99.90;;;;;;4968435;28;20443;-83
2023/08/23 02:37:20;;;;;;;10.47;7.90;;;19.30;99.90;;;;;;4972929;28;20195;-85
2023/08/23 02:39:45;;;;;;;9.53;7.87;;;19.20;99.90;;;;;;4968549;28;20383;-84
2023/08/23 02:42:11;;;;;;;13.30;8.77;;;19.10;99.90;;;;;;4965127;28;20203;-83
2023/08/23 02:44:36;;;;;;;10.70;8.03;;;19.20;99.90;;;;;;4968088;28;20206;-82
2023/08/23 02:47:02;;;;;;;9.03;8.17;;;19.10;99.90;;;;;;4973060;28;20618;-82
2023/08/23 02:49:27;;;;;;;8.50;7.70;;;19.10;99.90;;;;;;4969388;28;20203;-82
2023/08/23 02:51:53;;;;;;;17.93;9.10;;;19.10;99.90;;;;;;4966475;28;22090;-80
2023/08/23 02:54:18;;;;;;;13.10;8.97;;;19.10;99.90;;;;;;4981032;28;20190;-79
2023/08/23 02:56:44;;;;;;;9.70;8.53;;;19.10;99.90;;;;;;4975821;28;20191;-82
2023/08/23 02:59:09;;;;;;;9.00;8.10;;;19.10;99.90;;;;;;4974868;28;20203;-83
2023/08/23 03:01:35;;;;;;;9.70;8.13;;;19.10;99.90;;;;;;4971314;28;20196;-80
2023/08/23 03:04:00;;;;;;;12.00;8.80;;;19.10;99.90;;;;;;4973780;28;20206;-79
2023/08/23 03:06:26;;;;;;;10.37;8.57;;;19.00;99.90;;;;;;4973289;28;20186;-82
2023/08/23 03:08:51;;;;;;;11.50;9.10;;;19.00;99.90;;;;;;4971147;28;20214;-80
2023/08/23 03:11:17;;;;;;;10.70;8.53;;;19.00;99.90;;;;;;4970961;28;20197;-81
2023/08/23 03:13:42;;;;;;;9.87;8.87;;;19.00;99.90;;;;;;4967960;28;20183;-80
2023/08/23 03:16:08;;;;;;;9.70;8.33;;;19.00;99.90;;;;;;4963971;28;20195;-81
2023/08/23 03:18:33;;;;;;;10.33;9.30;;;18.90;99.90;;;;;;4971156;28;20227;-84
2023/08/23 03:20:59;;;;;;;8.67;7.83;;;18.80;99.90;;;;;;4974074;28;20836;-83
2023/08/23 03:23:24;;;;;;;13.43;9.43;;;18.70;99.90;;;;;;4968441;28;20198;-80
2023/08/23 03:25:50;;;;;;;12.07;8.80;;;18.70;99.90;;;;;;4969194;28;20188;-80
2023/08/23 03:28:16;;;;;;;12.63;9.60;;;18.60;99.90;;;;;;4969900;28;20214;-81
2023/08/23 03:30:41;;;;;;;10.30;8.77;;;18.50;99.90;;;;;;4967466;28;20191;-82
2023/08/23 03:33:07;;;;;;;14.03;9.60;;;18.50;99.90;;;;;;4982511;28;20225;-84
2023/08/23 03:35:33;;;;;;;12.10;10.87;;;18.40;99.90;;;;;;4976681;28;20274;-82
2023/08/23 03:37:59;;;;;;;13.67;9.10;;;18.40;99.90;;;;;;4969427;28;20283;-83
2023/08/23 03:40:25;;;;;;;16.47;9.50;;;18.40;99.90;;;;;;4980615;28;20528;-80
2023/08/23 03:42:51;;;;;;;10.37;8.77;;;18.40;99.90;;;;;;4963718;28;20543;-83
2023/08/23 03:45:17;;;;;;;16.70;9.33;;;18.30;99.90;;;;;;4966490;28;20188;-84
2023/08/23 03:47:43;;;;;;;14.23;9.40;;;18.20;99.90;;;;;;4965496;28;20198;-81
2023/08/23 03:50:10;;;;;;;11.13;10.03;;;18.30;99.90;;;;;;4958589;28;20484;-85
2023/08/23 03:52:35;;;;;;;9.60;8.70;;;18.20;99.90;;;;;;4959778;28;20602;-80
2023/08/23 03:55:01;;;;;;;15.97;9.17;;;18.20;99.90;;;;;;4962269;28;20438;-83
2023/08/23 03:57:27;;;;;;;12.47;9.50;;;18.20;99.90;;;;;;4968033;28;20183;-82
2023/08/23 03:59:52;;;;;;;11.97;9.30;;;18.20;99.90;;;;;;4967656;28;20472;-81
2023/08/23 04:02:18;;;;;;;10.07;9.00;;;18.30;99.90;;;;;;4965647;28;20195;-82
2023/08/23 04:04:43;;;;;;;18.00;10.40;;;18.40;99.90;;;;;;4968793;28;20250;-82
2023/08/23 04:07:13;;;;;;;12.53;9.57;;;18.40;99.90;;;;;;4964356;28;20684;-81
2023/08/23 04:09:39;;;;;;;15.93;9.63;;;18.40;99.90;;;;;;4969273;28;20212;-81
2023/08/23 04:12:04;;;;;;;14.43;8.63;;;18.40;99.90;;;;;;4989276;28;20441;-81
2023/08/23 04:14:30;;;;;;;12.60;9.83;;;18.40;99.90;;;;;;4976122;28;20198;-84
2023/08/23 04:16:55;;;;;;;14.93;9.40;;;18.30;99.90;;;;;;4972826;28;20294;-83
2023/08/23 04:19:21;;;;;;;15.37;10.23;;;18.20;99.90;;;;;;4973713;28;20405;-84
2023/08/23 04:21:47;;;;;;;11.93;10.10;;;18.20;99.90;;;;;;4970112;28;20199;-80
2023/08/23 04:24:12;;;;;;;11.57;9.40;;;18.20;99.90;;;;;;4970787;28;20180;-80
2023/08/23 04:26:38;;;;;;;10.43;9.20;;;18.20;99.90;;;;;;4974776;28;20529;-84
2023/08/23 04:29:04;;;;;;;12.13;8.90;;;18.20;99.90;;;;;;4973878;28;20225;-80
2023/08/23 04:31:30;;;;;;;17.33;9.37;;;18.20;99.90;;;;;;4969693;28;20287;-84
2023/08/23 04:33:55;;;;;;;10.90;9.27;;;18.20;99.90;;;;;;4972776;28;20447;-82
2023/08/23 04:36:21;;;;;;;11.93;9.60;;;18.30;99.90;;;;;;4973892;28;20525;-83
2023/08/23 04:38:47;;;;;;;17.90;10.87;;;18.30;99.90;;;;;;4970887;28;20316;-84
2023/08/23 04:41:12;;;;;;;16.73;10.07;;;18.30;99.90;;;;;;4964171;28;20530;-83
2023/08/23 04:43:38;;;;;;;12.30;9.40;;;18.40;99.90;;;;;;4966262;28;20179;-80
2023/08/23 04:46:05;;;;;;;11.13;10.10;;;18.40;99.90;;;;;;4968945;28;20782;-83
2023/08/23 04:48:31;;;;;;;13.40;9.50;;;18.50;99.90;;;;;;4966031;28;20246;-81
2023/08/23 04:50:58;;;;;;;11.53;9.07;;;18.60;99.90;;;;;;4966221;28;20830;-80
2023/08/23 04:53:24;;;;;;;12.50;9.13;;;18.90;99.90;;;;;;4963721;28;20434;-83
2023/08/23 04:55:50;;;;;;;12.83;8.70;;;19.50;99.90;;;;;;4966773;28;20441;-83
2023/08/23 04:58:16;;;;;;;9.23;7.60;;;20.30;99.90;;;;;;4963467;28;21592;-79
2023/08/23 05:00:43;;;;;;;9.37;7.27;;;20.80;99.90;;;;;;4968528;28;20442;-79
2023/08/23 05:03:09;;;;;;;25.13;7.07;;;21.40;99.90;;;;;;4973019;28;20187;-82
2023/08/23 05:05:35;;;;;;;9.00;8.07;;;22.10;99.90;;;;;;4973047;28;20477;-81
2023/08/23 05:08:00;;;;;;;7.60;6.87;;;22.50;99.90;;;;;;4970687;28;20270;-84
2023/08/23 05:10:27;;;;;;;8.77;6.43;;;23.20;99.90;;;;;;4982847;28;20443;-82
2023/08/23 05:12:52;;;;;;;6.80;6.17;;;23.80;99.90;;;;;;4977261;28;20183;-83
2023/08/23 05:15:18;;;;;;;7.90;5.90;;;24.40;99.90;;;;;;4973400;28;20457;-82
2023/08/23 05:17:43;;;;;;;10.03;6.40;;;25.30;99.90;;;;;;4973853;28;20212;-80
2023/08/23 05:20:09;;;;;;;9.93;5.60;;;26.40;99.90;;;;;;4967309;28;20205;-84
2023/08/23 05:22:35;;;;;;;14.00;5.90;;;27.70;99.90;;;;;;4971290;28;20651;-83
2023/08/23 05:25:01;;;;;;;6.10;5.50;;;29.20;99.90;;;;;;4973688;28;20455;-85
2023/08/23 05:27:27;;;;;;;6.70;5.40;;;30.00;99.90;;;;;;4971926;28;20236;-83
2023/08/23 05:29:52;;;;;;;5.73;5.00;;;30.50;99.90;;;;;;4978541;28;20491;-79
2023/08/23 05:32:18;;;;;;;10.80;6.07;;;30.70;99.90;;;;;;4982070;28;20193;-83
2023/08/23 05:34:43;;;;;;;5.13;4.73;;;31.10;99.90;;;;;;4974765;28;20183;-82
2023/08/23 05:37:09;;;;;;;6.27;5.67;;;32.10;99.90;;;;;;4980005;28;20187;-84
2023/08/23 05:39:34;;;;;;;7.20;5.47;;;32.00;99.90;;;;;;4979652;28;20216;-81
2023/08/23 05:42:00;;;;;;;9.83;5.80;;;32.00;99.90;;;;;;4981614;28;20259;-83
2023/08/23 05:44:25;;;;;;;6.40;5.27;;;32.30;99.90;;;;;;4971224;28;20209;-84
2023/08/23 05:46:51;;;;;;;8.80;5.60;;;33.20;99.90;;;;;;4967627;28;20276;-82
2023/08/23 05:49:16;;;;;;;8.57;5.87;;;34.10;99.80;;;;;;4971008;28;20331;-83
2023/08/23 05:51:42;;;;;;;8.50;4.87;;;34.70;97.20;;;;;;4967433;28;20195;-83
2023/08/23 05:54:07;;;;;;;6.27;5.30;;;34.60;95.50;;;;;;4969629;28;20192;-84
2023/08/23 05:56:34;;;;;;;8.33;6.40;;;34.50;94.10;;;;;;4971234;28;20175;-85
2023/08/23 05:58:59;;;;;;;8.53;6.40;;;34.10;93.60;;;;;;4962756;28;20211;-83
2023/08/23 06:01:25;;;;;;;8.20;6.27;;;34.60;93.60;;;;;;4967193;28;21075;-84
2023/08/23 06:03:51;;;;;;;5.90;5.30;;;35.00;92.50;;;;;;4973740;28;20196;-84
2023/08/23 06:06:20;;;;;;;8.90;6.27;;;;;;;;;;4973823;28;20406;-88
2023/08/23 06:08:46;;;;;;;10.03;6.50;;;;;;;;;;4972910;28;20561;-80
2023/08/23 06:11:12;;;;;;;10.60;6.70;;;;;;;;;;4966600;28;20574;-80
2023/08/23 06:13:42;;;;;;;7.03;6.37;;;37.40;82.60;;;;;;4974044;28;20470;-84
2023/08/23 06:16:07;;;;;;;6.83;6.23;;;38.10;81.00;;;;;;4969081;28;21588;-80
2023/08/23 06:18:33;;;;;;;7.83;7.13;;;39.20;73.40;;;;;;4970255;28;20473;-81
2023/08/23 06:20:59;;;;;;;7.87;7.07;;;;;;;;;;4968241;28;20202;-82
2023/08/23 06:23:24;;;;;;;9.57;8.57;;;41.60;66.00;;;;;;4966196;28;20234;-86
2023/08/23 06:25:56;;;;;;;9.53;8.83;;;42.80;60.00;;;;;;4971337;28;21220;-88
2023/08/23 06:28:22;;;;;;;10.23;9.40;;;43.40;56.80;;;;;;4961444;28;20219;-85
2023/08/23 06:30:47;;;;;;;10.07;9.27;;;44.00;53.40;;;;;;4970648;28;20501;-89
2023/08/23 06:33:14;;;;;;;11.70;10.60;;;45.10;53.40;;;;;;4958916;28;20207;-86
2023/08/23 06:35:39;;;;;;;12.93;12.07;;;45.00;50.30;;;;;;4979885;28;20440;-86
2023/08/23 06:38:05;;;;;;;13.97;13.03;;;44.50;48.50;;;;;;4964242;28;20183;-87
2023/08/23 06:40:31;;;;;;;12.73;11.97;;;44.60;47.00;;;;;;4959522;28;20224;-88
2023/08/23 06:42:56;;;;;;;19.63;13.70;;;43.90;47.60;;;;;;4967621;28;20568;-82
2023/08/23 06:45:22;;;;;;;13.50;12.20;;;42.10;59.30;;;;;;4966496;28;20451;-83
2023/08/23 06:47:48;;;;;;;12.90;11.90;;;41.90;49.40;;;;;;4970733;28;20592;-82
2023/08/23 06:50:14;;;;;;;14.20;13.10;;;41.40;49.40;;;;;;4986957;28;20218;-88
2023/08/23 06:52:40;;;;;;;13.73;12.87;;;41.20;49.40;;;;;;4969809;28;20888;-83
2023/08/23 06:55:06;;;;;;;13.17;12.07;;;40.60;49.80;;;;;;4964103;28;20195;-81
2023/08/23 06:57:31;;;;;;;12.40;11.43;;;40.50;50.90;;;;;;4964391;28;20821;-80
2023/08/23 06:59:58;;;;;;;13.23;12.17;;;40.10;51.40;;;;;;4972185;28;20485;-84
2023/08/23 07:02:25;;;;;;;12.83;11.67;;;39.30;53.70;;;;;;4978558;28;20180;-82
2023/08/23 07:04:51;;;;;;;12.10;11.30;;;40.10;52.00;;;;;;4976712;28;21872;-86
2023/08/23 07:07:18;;;;;;;12.57;11.77;;;40.00;52.30;;;;;;4979913;28;20470;-84
2023/08/23 07:09:43;;;;;;;13.53;12.20;;;41.50;50.50;;;;;;4978612;28;21006;-85
2023/08/23 07:12:09;;;;;;;12.50;11.60;;;40.80;50.20;;;;;;4978021;28;20431;-85
2023/08/23 07:14:34;;;;;;;14.30;13.17;;;40.80;50.50;;;;;;4977742;28;20190;-85
2023/08/23 07:17:00;;;;;;;13.30;12.17;;;40.50;50.30;;;;;;4969890;28;20178;-86
2023/08/23 07:19:25;;;;;;;12.80;12.00;;;40.00;50.30;;;;;;4975726;28;20199;-83
2023/08/23 07:21:51;;;;;;;12.67;11.60;;;39.70;52.30;;;;;;4989867;28;20183;-81
2023/08/23 07:24:16;;;;;;;13.60;12.60;;;40.60;51.60;;;;;;4990664;28;20191;-82
2023/08/23 07:26:42;;;;;;;13.43;12.33;;;39.10;52.00;;;;;;4978615;28;20194;-82
2023/08/23 07:29:07;;;;;;;13.27;12.00;;;38.60;52.90;;;;;;4976135;28;20215;-84
2023/08/23 07:31:33;;;;;;;11.40;10.40;;;36.90;55.50;;;;;;4973245;28;20178;-85
2023/08/23 07:34:01;;;;;;;10.23;9.33;;;35.90;57.70;;;;;;4975104;28;21228;-86
2023/08/23 07:36:26;;;;;;;15.53;10.53;;;36.90;57.70;;;;;;4980916;28;20179;-84
2023/08/23 07:38:52;;;;;;;11.00;10.03;;;38.00;57.00;;;;;;4977241;28;21081;-83
2023/08/23 07:41:17;;;;;;;17.63;10.43;;;39.00;56.00;;;;;;4980997;28;20238;-83
2023/08/23 07:43:43;;;;;;;12.53;11.63;;;41.30;53.40;;;;;;4977109;28;20187;-84
2023/08/23 07:46:09;;;;;;;15.53;10.90;;;41.60;50.70;;;;;;4975510;28;20202;-83
2023/08/23 07:48:34;;;;;;;13.17;11.90;;;41.30;50.90;;;;;;4976867;28;20214;-83
2023/08/23 07:51:04;;;;;;;12.07;11.10;;;39.60;50.80;;;;;;4994394;28;20214;-82
2023/08/23 07:53:30;;;;;;;13.40;12.00;;;39.30;53.40;;;;;;4985823;28;20256;-83
2023/08/23 07:55:56;;;;;;;14.03;12.77;;;40.30;51.00;;;;;;4989022;28;20463;-85
2023/08/23 07:58:21;;;;;;;12.80;11.90;;;39.60;52.40;;;;;;4983184;28;20217;-84
2023/08/23 08:00:47;;;;;;;12.70;11.43;;;39.60;52.60;;;;;;4974354;28;20263;-85
2023/08/23 08:03:13;;;;;;;12.00;11.00;;;38.80;53.60;;;;;;4964532;28;20278;-82
2023/08/23 08:05:38;;;;;;;12.90;10.33;;;36.90;54.10;;;;;;4974102;28;20333;-86
2023/08/23 08:08:05;;;;;;;10.30;9.40;;;36.80;58.80;;;;;;4972715;28;20247;-82
2023/08/23 08:10:31;;;;;;;11.73;10.70;;;39.40;56.40;;;;;;4976737;28;20195;-85
2023/08/23 08:13:01;;;;;;;12.70;11.80;;;40.00;52.70;;;;;;4988030;28;20454;-79
2023/08/23 08:15:27;;;;;;;11.90;11.20;;;41.60;51.90;;;;;;4978607;28;20190;-84
2023/08/23 08:17:53;;;;;;;13.77;12.70;;;43.10;49.20;;;;;;4980085;28;20498;-77
2023/08/23 08:20:19;;;;;;;13.80;12.80;;;44.20;47.30;;;;;;4984853;28;20455;-80
2023/08/23 08:22:45;;;;;;;13.77;12.53;;;43.00;46.70;;;;;;4974172;28;20457;-85
2023/08/23 08:25:11;;;;;;;15.07;14.07;;;42.90;47.20;;;;;;4975164;28;22248;-82
2023/08/23 08:27:37;;;;;;;14.33;13.20;;;42.50;46.90;;;;;;4970041;28;20258;-80
2023/08/23 08:30:03;;;;;;;15.03;13.80;;;42.30;48.40;;;;;;4978561;28;20766;-84
2023/08/23 08:32:28;;;;;;;15.37;14.17;;;41.70;47.40;;;;;;4982973;28;20278;-83
2023/08/23 08:34:55;;;;;;;15.93;14.70;;;40.50;50.00;;;;;;4983092;28;20434;-84
2023/08/23 08:37:23;;;;;;;13.77;12.47;;;39.50;50.50;;;;;;4990258;28;20860;-79
2023/08/23 08:39:49;;;;;;;15.40;14.03;;;41.10;51.00;;;;;;4981679;28;20462;-83
2023/08/23 08:42:15;;;;;;;14.30;13.40;;;42.50;48.30;;;;;;4979422;28;20438;-83
2023/08/23 08:44:42;;;;;;;15.33;14.03;;;43.90;46.60;;;;;;4982172;28;20401;-83
2023/08/23 08:47:07;;;;;;;15.17;14.20;;;44.30;45.80;;;;;;4985309;28;20557;-83
2023/08/23 08:49:33;;;;;;;15.00;13.70;;;42.90;45.80;;;;;;4980097;28;20509;-87
2023/08/23 08:52:00;;;;;;;15.07;13.77;;;41.70;47.60;;;;;;4978677;28;22671;-89
2023/08/23 08:54:29;;;;;;;14.90;13.47;;;41.20;48.10;;;;;;4981083;28;20190;-87
2023/08/23 08:56:55;;;;;;;13.57;12.67;;;39.00;48.90;;;;;;4975557;28;20442;-84
2023/08/23 08:59:21;;;;;;;14.13;13.03;;;38.10;52.90;;;;;;4967130;28;20463;-82
2023/08/23 09:01:49;;;;;;;15.53;13.80;;;38.60;52.20;;;;;;4969198;28;20475;-85
2023/08/23 09:04:15;;;;;;;15.00;13.70;;;39.60;50.10;;;;;;4962500;28;20330;-88
2023/08/23 09:06:41;;;;;;;14.13;13.00;;;38.80;50.40;;;;;;4957513;28;20438;-85
2023/08/23 09:09:07;;;;;;;13.73;12.73;;;39.60;50.30;;;;;;4967669;28;20596;-85
2023/08/23 09:11:34;;;;;;;14.30;13.20;;;39.00;52.10;;;;;;4968113;28;20652;-85
2023/08/23 09:14:15;;;;;;;13.40;12.30;;;39.10;51.10;;;;;;4971133;28;20696;-84
2023/08/23 09:16:40;;;;;;;14.20;13.10;;;40.10;50.00;;;;;;4978381;28;20476;-85
2023/08/23 09:19:11;;;;;;;14.17;13.20;;;40.80;49.10;;;;;;4969392;28;20470;-83
2023/08/23 09:21:49;;;;;;;14.30;13.40;;;41.30;47.30;;;;;;4969346;28;20191;-82
2023/08/23 09:24:15;;;;;;;14.20;13.20;;;39.60;47.60;;;;;;4968835;28;20492;-84
2023/08/23 09:26:41;;;;;;;17.00;14.60;;;39.70;47.50;;;;;;4964666;28;20446;-84
2023/08/23 09:29:07;;;;;;;12.80;12.00;;;39.80;47.30;;;;;;4958311;28;20834;-82
2023/08/23 09:31:33;;;;;;;13.87;12.60;;;40.00;47.20;;;;;;4958747;28;20202;-83
2023/08/23 09:34:00;;;;;;;14.27;13.20;;;40.30;46.90;;;;;;4959710;28;20437;-81
2023/08/23 09:36:27;;;;;;;13.67;12.63;;;41.10;44.60;;;;;;4985998;28;20179;-86
2023/08/23 09:38:54;;;;;;;15.07;14.07;;;41.70;45.90;;;;;;4967543;28;20463;-84
2023/08/23 09:41:21;;;;;;;14.10;13.10;;;41.70;45.00;;;;;;4960829;28;20477;-83
2023/08/23 09:43:51;;;;;;;14.60;13.80;;;42.30;43.10;;;;;;4960763;28;20430;-82
2023/08/23 09:46:18;;;;;;;14.97;13.87;;;42.30;43.80;;;;;;4962951;28;21058;-85
2023/08/23 09:48:44;;;;;;;14.00;13.23;;;42.20;44.30;;;;;;4962326;28;20538;-85
2023/08/23 09:51:11;;;;;;;16.03;14.93;;;41.80;42.60;;;;;;4961170;28;20470;-85
2023/08/23 09:53:42;;;;;;;14.47;13.30;;;40.80;43.80;;;;;;4957488;28;20942;-82
2023/08/23 09:56:09;;;;;;;16.03;14.80;;;40.30;44.90;;;;;;4956877;28;20445;-81
2023/08/23 09:58:36;;;;;;;16.30;15.20;;;40.40;44.80;;;;;;4961531;28;21090;-79
2023/08/23 10:01:02;;;;;;;14.80;13.57;;;40.80;44.00;;;;;;4965372;28;20485;-82
2023/08/23 10:03:28;;;;;;;15.77;14.37;;;40.50;44.20;;;;;;4958371;28;20586;-81
2023/08/23 10:05:53;;;;;;;16.00;14.83;;;39.70;45.10;;;;;;4960680;28;20198;-80
2023/08/23 10:08:20;;;;;;;14.20;13.10;;;39.90;45.00;;;;;;4955080;28;20904;-82
2023/08/23 10:10:49;;;;;;;15.27;14.47;;;39.90;45.30;;;;;;4957798;28;20206;-81
2023/08/23 10:13:18;;;;;;;16.20;14.73;;;39.80;45.10;;;;;;4962272;28;20564;-81
2023/08/23 10:15:44;;;;;;;15.43;14.37;;;39.30;45.00;;;;;;4953724;28;20434;-83
2023/08/23 10:18:14;;;;;;;14.87;13.87;;;39.10;45.50;;;;;;4961429;28;20486;-87
2023/08/23 10:20:41;;;;;;;14.07;13.03;;;39.00;47.00;;;;;;4958022;28;20187;-80
2023/08/23 10:23:15;;;;;;;15.33;14.03;;;39.30;47.70;;;;;;4953673;28;20462;-81
2023/08/23 10:25:45;;;;;;;13.70;12.73;;;38.40;46.70;;;;;;4956814;28;20446;-81
2023/08/23 10:28:18;;;;;;;13.33;12.33;;;36.90;48.80;;;;;;4960284;28;20848;-86
2023/08/23 10:30:50;;;;;;;11.33;10.33;;;34.90;51.80;;;;;;4959364;28;20455;-83
2023/08/23 10:33:18;;;;;;;11.30;10.10;;;33.50;54.70;;;;;;4953290;28;20448;-83
2023/08/23 10:35:45;;;;;;;11.40;9.30;;;32.90;57.40;;;;;;4964503;28;21384;-84
2023/08/23 10:38:11;;;;;;;14.00;8.30;;;32.30;60.60;;;;;;4956114;28;20455;-82
2023/08/23 10:40:43;;;;;;;10.77;7.07;;;31.40;61.80;;;;;;4955422;28;20518;-85
2023/08/23 10:43:11;;;;;;;7.67;6.97;;;31.80;67.90;;;;;;4951613;28;20442;-82
2023/08/23 10:45:50;;;;;;;9.47;7.33;;;30.60;68.80;;;;;;4958206;28;20950;-83
2023/08/23 10:48:19;;;;;;;7.90;7.10;;;30.90;66.40;;;;;;4954301;28;20535;-84
2023/08/23 10:50:47;;;;;;;9.90;7.00;;;31.20;64.80;;;;;;4959800;28;20452;-81
2023/08/23 10:53:15;;;;;;;6.97;6.27;;;31.20;62.90;;;;;;4958626;28;20490;-85
2023/08/23 10:55:40;;;;;;;8.80;7.50;;;31.20;65.20;;;;;;4961059;28;20531;-82
2023/08/23 10:58:06;;;;;;;8.70;6.70;;;31.10;66.50;;;;;;4955728;28;20471;-82
2023/08/23 11:00:32;;;;;;;8.23;6.20;;;30.90;71.50;;;;;;4974418;28;20257;-83
2023/08/23 11:02:58;;;;;;;7.30;6.60;;;31.00;71.10;;;;;;4965757;28;20187;-85
2023/08/23 11:05:24;;;;;;;7.27;6.67;;;31.00;71.60;;;;;;4958162;28;20512;-82
2023/08/23 11:07:51;;;;;;;7.30;6.23;;;31.00;69.70;;;;;;4971898;28;20571;-82
2023/08/23 11:10:18;;;;;;;8.60;5.83;;;30.90;73.20;;;;;;4966444;28;20768;-81
2023/08/23 11:12:44;;;;;;;7.40;5.90;;;31.00;75.20;;;;;;4967221;28;20877;-85
2023/08/23 11:15:10;;;;;;;7.60;6.40;;;31.20;67.80;;;;;;4963527;28;20462;-82
2023/08/23 11:17:37;;;;;;;6.93;5.73;;;31.10;69.90;;;;;;4971832;28;20210;-82
2023/08/23 11:20:04;;;;;;;8.10;6.50;;;31.10;74.40;;;;;;4965416;28;20487;-84
2023/08/23 11:22:30;;;;;;;10.30;5.93;;;31.20;75.20;;;;;;4964003;28;20494;-82
2023/08/23 11:24:58;;;;;;;9.43;6.33;;;31.30;71.40;;;;;;4968163;28;20532;-83
2023/08/23 11:27:24;;;;;;;7.23;5.47;;;31.50;68.00;;;;;;4967400;28;21399;-86
2023/08/23 11:29:50;;;;;;;13.60;6.40;;;31.50;69.60;;;;;;4970347;28;20445;-85
2023/08/23 11:32:16;;;;;;;8.27;7.30;;;31.30;66.90;;;;;;4972600;28;20367;-83
2023/08/23 11:34:42;;;;;;;8.50;7.40;;;31.20;67.50;;;;;;4973383;28;20292;-87
2023/08/23 11:37:09;;;;;;;7.80;6.70;;;31.20;67.60;;;;;;4977193;28;20437;-82
2023/08/23 11:39:35;;;;;;;8.40;6.27;;;31.10;70.70;;;;;;4967009;28;20217;-85
2023/08/23 11:42:00;;;;;;;8.60;5.90;;;31.20;66.90;;;;;;4964060;28;20564;-85
2023/08/23 11:44:28;;;;;;;7.10;5.60;;;31.30;68.20;;;;;;4964400;28;20984;-85
2023/08/23 11:46:56;;;;;;;7.67;6.00;;;30.40;71.70;;;;;;4966512;28;20198;-85
2023/08/23 11:49:23;;;;;;;6.60;5.33;;;30.30;71.40;;;;;;4965386;28;20471;-84
2023/08/23 11:51:50;;;;;;;7.60;5.73;;;30.30;73.90;;;;;;4961168;28;20439;-80
2023/08/23 11:54:17;;;;;;;8.13;6.00;;;30.10;73.40;;;;;;4966583;28;20451;-82
2023/08/23 11:56:44;;;;;;;5.87;5.37;;;29.90;73.50;;;;;;4970592;28;20450;-81
2023/08/23 11:59:11;;;;;;;6.83;5.70;;;30.00;70.00;;;;;;4969581;28;20556;-84
2023/08/23 12:01:38;;;;;;;5.43;4.93;;;30.40;69.90;;;;;;4960871;28;20538;-80
2023/08/23 12:04:04;;;;;;;6.00;5.43;;;30.40;70.30;;;;;;4956886;28;20434;-78
2023/08/23 12:06:30;;;;;;;5.77;5.13;;;30.40;69.40;;;;;;4956782;28;20448;-81
2023/08/23 12:08:56;;;;;;;6.33;5.20;;;30.40;70.40;;;;;;4962795;28;20824;-83
2023/08/23 12:11:21;;;;;;;8.23;5.27;;;30.40;70.90;;;;;;4963068;28;20179;-84
2023/08/23 12:13:47;;;;;;;8.30;5.70;;;30.40;70.10;;;;;;4962862;28;20185;-81
2023/08/23 12:16:13;;;;;;;5.10;4.60;;;30.80;70.80;;;;;;4962696;28;20624;-84
2023/08/23 12:18:39;;;;;;;5.20;4.03;;;30.80;70.10;;;;;;4958418;28;20468;-81
2023/08/23 12:21:04;;;;;;;8.60;5.50;;;30.90;71.80;;;;;;4959396;28;20181;-81
2023/08/23 12:23:30;;;;;;;5.60;5.10;;;30.50;67.40;;;;;;4978391;28;20200;-80
2023/08/23 12:25:56;;;;;;;5.27;4.87;;;30.70;66.40;;;;;;4965570;28;20259;-89
2023/08/23 12:28:22;;;;;;;11.83;5.87;;;30.90;70.10;;;;;;4962663;28;20475;-82
2023/08/23 12:30:47;;;;;;;9.03;5.30;;;30.80;68.10;;;;;;4960335;28;21337;-82
2023/08/23 12:33:13;;;;;;;7.47;5.13;;;30.50;70.10;;;;;;4959278;28;20219;-83
2023/08/23 12:35:38;;;;;;;6.93;6.10;;;30.40;72.80;;;;;;4965713;28;20198;-80